Portada
METAR-TAF:

METAR-TAF

Aeropuertos :

Badajoz, España

Aeropuerto de Badajoz

latitud: 38-53N, longitud: 006-49W, altitud: 185 m

Observación

El informe se hizo hace 20 horas y 11 minutos, a las 15:00 UTC
Viento 7 kt del noroeste, variando entre oeste y norte
Temperatura 19°C
Humedad 37%
Presión 1016 hPa
Visibilidad 10 km o más
sin nubes por debajo de 1500 m y sin presencia de cumulonimbus.

METAR: LEBZ 201500Z 32007KT 260V010 CAVOK 19/04 Q1016

Hora: 12:11 (11:11 UTC)

Pronóstico

El informe se hizo hace 11 minutos, a las 11:00 UTC
Pronóstico válido del 20 a las 12 UTC al 21 a las 12 UTC
Viento 6 kt del norte-noroeste
Visibilidad 10 km o más
sin nubes por debajo de 1500 m y sin presencia de cumulonimbus.

TAF: LEBZ 201100Z 2012/2112 34006KT CAVOK TX19/2015Z TN02/2107Z

Observaciones y pronósticos meteorológicos de más de 4000 aeropuertos (mensajes METAR y TAF).

Los puntos amarillos y rojos representan las estaciones disponibles.

Ponga el ratón en el punto deseado para ver el nombre de la estación.

Haga clic para ver las observaciones y los pronósticos meteorológicos.

Para cambiar el mapa : haga clic en los botones verdes con una cruz de color negro para hacer un zoom, en el botón verde con un guión para alejar o en las flechas verdes para mapas adyacentes.


METAR-TAF: